Time;durP1;ratioP1;P1;durP2;ratioP2;P2;SDS_P1;SDS_P2;PMS_P1;PMS_P2;Temp;Humidity;BMP_temperature;BMP_pressure;BME280_temperature;BME280_humidity;BME280_pressure;Samples;Min_cycle;Max_cycle;Signal;HPM_P1;HPM_P2
2022/12/15 00:41:17;;;;;;;68.50;23.10;;;;;;;-9.60;90.53;98799.17;105709;1294;59820;-63
2022/12/15 00:44:05;;;;;;;56.00;20.50;;;;;;;-9.60;90.54;98798.14;104920;1286;1002160;-63
2022/12/15 00:46:55;;;;;;;58.60;21.90;;;;;;;-9.60;90.32;98799.00;105864;1292;73204;-64
2022/12/15 01:21:04;;;;;;;56.50;20.50;;;;;;;-9.24;91.27;98782.42;105886;1285;67547;-63
2022/12/15 01:23:52;;;;;;;60.20;20.40;;;;;;;-9.18;90.91;98780.27;105614;1292;73812;-63
2022/12/15 01:26:40;;;;;;;56.30;20.40;;;;;;;-9.16;90.48;98782.77;105843;1294;58326;-63
2022/12/15 01:29:28;;;;;;;55.90;19.70;;;;;;;-9.12;90.29;98776.70;105881;1294;60151;-63
2022/12/15 01:32:16;;;;;;;56.00;21.20;;;;;;;-9.12;89.77;98776.36;105867;1292;73881;-63
2022/12/15 01:35:06;;;;;;;57.10;21.00;;;;;;;-9.13;89.49;98771.91;105867;1292;68662;-65
2022/12/15 01:37:54;;;;;;;57.70;20.80;;;;;;;-9.14;89.39;98775.55;105788;1283;72600;-63
2022/12/15 01:40:54;;;;;;;53.90;20.50;;;;;;;-9.15;89.25;98778.30;105914;1291;58753;-64
2022/12/15 01:43:42;;;;;;;57.70;19.20;;;;;;;-9.13;88.66;98772.74;105815;1284;60337;-64
2022/12/15 01:46:30;;;;;;;57.80;20.90;;;;;;;-9.14;88.19;98771.56;105916;1291;72927;-64
2022/12/15 01:49:31;;;;;;;65.90;22.60;;;;;;;-9.20;87.39;98772.20;105799;1285;66293;-64
2022/12/15 01:52:18;;;;;;;63.10;21.10;;;;;;;-9.26;87.49;98773.34;105794;1287;72700;-63
2022/12/15 01:55:06;;;;;;;60.10;23.40;;;;;;;-9.30;86.98;98771.86;105915;1291;58669;-63
2022/12/15 01:58:02;;;;;;;64.40;23.50;;;;;;;-9.36;86.98;98771.63;105906;1283;60441;-63
2022/12/15 02:00:50;;;;;;;54.00;22.40;;;;;;;-9.39;87.00;98774.60;105600;1291;71402;-63
2022/12/15 02:03:38;;;;;;;65.00;23.30;;;;;;;-9.46;86.25;98772.66;105907;1290;68930;-63
2022/12/15 02:06:27;;;;;;;69.40;23.80;;;;;;;-9.53;86.44;98775.70;105767;1291;72754;-65
2022/12/15 02:09:16;;;;;;;61.90;23.80;;;;;;;-9.55;86.80;98777.27;105902;1277;58504;-63
2022/12/15 02:12:16;;;;;;;60.10;23.50;;;;;;;-9.57;86.60;98776.27;105762;1295;60390;-63
2022/12/15 02:15:34;;;;;;;63.80;22.10;;;;;;;-9.62;86.68;98778.42;105766;1293;72791;-64
2022/12/15 02:18:50;;;;;;;61.10;22.80;;;;;;;-9.63;86.60;98782.21;105899;1291;69083;-64
2022/12/15 02:21:54;;;;;;;50.90;21.00;;;;;;;-9.63;86.67;98783.92;105836;1284;71700;-63
2022/12/15 02:25:21;;;;;;;62.40;22.60;;;;;;;-9.63;86.62;98784.62;105009;1292;1002767;-63
2022/12/15 02:28:42;;;;;;;60.30;20.60;;;;;;;-9.61;86.86;98785.45;105110;1293;1002802;-64
2022/12/15 02:31:49;;;;;;;63.00;21.60;;;;;;;-9.60;86.82;98793.69;105194;1296;1002353;-64
2022/12/15 02:34:56;;;;;;;59.50;21.50;;;;;;;-9.61;86.31;98791.64;105758;1291;68108;-63
2022/12/15 02:37:43;;;;;;;65.70;21.40;;;;;;;-9.66;86.14;98795.83;105827;1294;71634;-66
2022/12/15 02:40:36;;;;;;;67.10;22.40;;;;;;;-9.68;86.52;98790.36;105827;1295;58543;-64
2022/12/15 02:43:26;;;;;;;68.40;24.40;;;;;;;-9.64;86.43;98791.86;105920;1292;60534;-64
2022/12/15 02:46:55;;;;;;;58.40;22.30;;;;;;;-9.63;86.59;98784.63;105728;1296;72148;-64
2022/12/15 02:50:07;;;;;;;59.40;20.40;;;;;;;-9.62;86.63;98783.05;105599;1294;68086;-63
2022/12/15 02:53:19;;;;;;;64.50;22.30;;;;;;;-9.57;86.19;98781.61;105802;1294;73942;-64
2022/12/15 02:56:34;;;;;;;56.20;21.20;;;;;;;-9.55;86.40;98780.55;105158;1292;1002438;-63
2022/12/15 02:59:40;;;;;;;60.80;22.40;;;;;;;-9.63;85.74;98787.02;105801;1291;59155;-62
2022/12/15 03:02:33;;;;;;;58.00;22.20;;;;;;;-9.67;85.88;98790.69;105825;1294;74338;-64
2022/12/15 03:05:23;;;;;;;64.00;22.20;;;;;;;-9.69;86.33;98788.84;105720;1292;68951;-64
2022/12/15 03:08:11;;;;;;;61.20;21.60;;;;;;;-9.72;85.76;98789.76;104992;1292;1002904;-64
2022/12/15 03:11:00;;;;;;;54.80;20.40;;;;;;;-9.75;85.83;98792.55;105791;1294;58662;-64
2022/12/15 03:13:48;;;;;;;60.30;23.10;;;;;;;-9.83;85.66;98795.06;105889;1287;59271;-62
2022/12/15 03:16:36;;;;;;;71.10;24.40;;;;;;;-9.89;85.62;98794.81;105183;1291;1002328;-64
2022/12/15 03:19:24;;;;;;;54.20;19.00;;;;;;;-9.97;85.46;98791.33;105913;1291;67559;-64
2022/12/15 03:22:12;;;;;;;60.40;21.30;;;;;;;-10.05;85.57;98791.27;105920;1291;71473;-64
2022/12/15 03:25:00;;;;;;;52.50;19.30;;;;;;;-10.11;85.87;98789.30;105916;1292;58541;-63
2022/12/15 03:27:48;;;;;;;64.90;21.90;;;;;;;-10.20;85.99;98784.80;105913;1285;57730;-64
2022/12/15 03:30:36;;;;;;;138.30;34.70;;;;;;;-10.14;86.22;98792.95;105892;1291;73943;-64
2022/12/15 03:33:23;;;;;;;74.60;22.60;;;;;;;-10.20;86.44;98787.89;105936;1291;66365;-64
2022/12/15 03:36:11;;;;;;;79.60;23.90;;;;;;;-10.22;86.51;98784.66;105170;1291;1002505;-64
2022/12/15 03:38:59;;;;;;;68.40;23.30;;;;;;;-10.19;86.77;98796.45;105076;1291;1002357;-65
2022/12/15 03:41:46;;;;;;;63.90;24.30;;;;;;;-10.22;86.63;98798.03;105948;1291;59387;-65
2022/12/15 03:44:34;;;;;;;93.40;26.70;;;;;;;-10.22;86.90;98796.14;105907;1291;71815;-64
2022/12/15 03:47:21;;;;;;;90.80;25.90;;;;;;;-10.20;86.78;98796.29;105912;1296;67755;-64
2022/12/15 03:50:12;;;;;;;62.70;23.10;;;;;;;-10.22;86.50;98804.39;105888;1292;73949;-62
2022/12/15 03:53:02;;;;;;;66.10;23.20;;;;;;;-10.27;86.60;98805.14;105773;1291;57214;-62
2022/12/15 03:55:50;;;;;;;71.60;23.60;;;;;;;-10.28;86.64;98808.92;104202;1298;1002640;-63
2022/12/15 03:58:38;;;;;;;90.40;26.70;;;;;;;-10.26;86.85;98806.48;105910;1291;74664;-63
2022/12/15 04:01:32;;;;;;;74.50;23.50;;;;;;;-10.23;86.94;98803.19;105176;1292;1002263;-62
2022/12/15 04:04:20;;;;;;;68.00;24.30;;;;;;;-10.19;86.90;98803.83;105733;1295;73495;-63
2022/12/15 04:07:08;;;;;;;67.90;22.80;;;;;;;-10.13;86.76;98801.53;105783;1284;58759;-65
2022/12/15 04:09:55;;;;;;;65.30;24.00;;;;;;;-10.12;86.57;98798.58;105941;1289;59383;-63
2022/12/15 04:12:43;;;;;;;63.60;21.20;;;;;;;-10.11;86.24;98798.73;105826;1291;74235;-63
2022/12/15 04:15:32;;;;;;;63.40;23.00;;;;;;;-10.08;86.71;98801.63;105934;1292;67232;-63
2022/12/15 04:18:20;;;;;;;68.10;23.10;;;;;;;-10.04;86.37;98797.43;105905;1284;70583;-63
2022/12/15 04:21:07;;;;;;;65.80;23.10;;;;;;;-10.00;86.36;98798.25;105903;1291;58882;-63
2022/12/15 05:32:32;;;;;;;61.10;22.40;;;;;;;-9.90;84.12;98833.79;105157;1291;1002615;-65
2022/12/15 05:35:20;;;;;;;59.00;20.90;;;;;;;-9.95;84.27;98834.73;105894;1291;71132;-63
2022/12/15 05:38:08;;;;;;;56.60;22.00;;;;;;;-10.01;84.23;98833.60;105721;1299;58843;-63
2022/12/15 05:40:58;;;;;;;61.00;22.40;;;;;;;-10.03;84.33;98830.88;105858;1292;60689;-67
2022/12/15 05:43:46;;;;;;;57.00;20.80;;;;;;;-10.04;84.18;98831.92;104920;1297;1002371;-66
2022/12/15 05:46:34;;;;;;;66.40;24.10;;;;;;;-10.07;84.00;98834.38;105727;1294;66205;-66
2022/12/15 05:49:22;;;;;;;62.60;23.30;;;;;;;-10.09;83.88;98840.07;105591;1296;156294;-66
2022/12/15 05:52:10;;;;;;;67.50;25.10;;;;;;;-10.11;83.69;98850.38;105826;1297;58857;-64
2022/12/15 05:54:58;;;;;;;64.30;23.70;;;;;;;-10.18;82.96;98850.65;105105;1292;1002248;-66
2022/12/15 05:57:53;;;;;;;64.70;23.00;;;;;;;-10.25;83.17;98848.35;105837;1291;73940;-68
2022/12/15 06:00:40;;;;;;;66.10;23.00;;;;;;;-10.36;83.05;98857.95;105713;1292;66725;-64
2022/12/15 06:03:32;;;;;;;65.50;23.70;;;;;;;-10.46;82.78;98865.27;105836;1292;71396;-64
2022/12/15 06:06:27;;;;;;;61.50;22.30;;;;;;;-10.58;82.95;98870.20;105824;1284;58486;-64
2022/12/15 06:09:15;;;;;;;50.40;21.20;;;;;;;-10.69;83.23;98871.18;105795;1292;60312;-68
2022/12/15 06:12:03;;;;;;;68.60;25.50;;;;;;;-10.80;83.22;98884.66;104985;1294;1002978;-65
2022/12/15 06:14:53;;;;;;;69.60;24.30;;;;;;;-10.85;83.24;98890.38;105833;1290;68680;-66
2022/12/15 06:17:56;;;;;;;64.20;23.00;;;;;;;-10.88;83.19;98893.48;105826;1291;72034;-65
2022/12/15 06:20:44;;;;;;;68.20;23.60;;;;;;;-10.87;84.10;98891.42;105808;1294;58956;-64
2022/12/15 06:23:36;;;;;;;66.90;24.60;;;;;;;-10.85;83.82;98890.02;105782;1292;58987;-65
2022/12/15 06:26:39;;;;;;;66.70;24.20;;;;;;;-10.76;84.43;98894.23;105875;1284;72737;-65
2022/12/15 06:29:26;;;;;;;65.00;21.60;;;;;;;-10.69;83.86;98899.63;105795;1299;67795;-68
2022/12/15 06:32:14;;;;;;;60.00;20.70;;;;;;;-10.64;83.92;98900.45;105894;1291;71432;-66
2022/12/15 06:35:02;;;;;;;52.30;19.90;;;;;;;-10.58;84.25;98903.66;105887;1285;58671;-66
2022/12/15 06:37:50;;;;;;;53.70;20.20;;;;;;;-10.58;83.54;98910.51;105799;1284;60069;-64
2022/12/15 06:40:38;;;;;;;53.50;21.10;;;;;;;-10.57;83.83;98911.02;105892;1293;71853;-67
2022/12/15 06:43:27;;;;;;;61.80;21.80;;;;;;;-10.53;83.87;98918.67;105805;1292;67615;-68
2022/12/15 06:46:15;;;;;;;57.90;22.60;;;;;;;-10.48;83.59;98926.52;105865;1298;73453;-67
2022/12/15 06:49:04;;;;;;;63.00;23.50;;;;;;;-10.49;83.25;98916.92;105854;1292;58537;-66
2022/12/15 06:51:52;;;;;;;66.10;23.50;;;;;;;-10.53;83.18;98917.98;105892;1291;58868;-64
2022/12/15 06:54:39;;;;;;;66.60;23.00;;;;;;;-10.55;83.13;98917.33;105809;1295;70352;-66
2022/12/15 06:57:27;;;;;;;60.70;23.50;;;;;;;-10.58;82.47;98930.39;105765;1290;68710;-64
2022/12/15 07:00:15;;;;;;;66.90;24.80;;;;;;;-10.64;82.62;98933.36;105908;1288;70313;-65
2022/12/15 07:03:08;;;;;;;73.10;26.00;;;;;;;-10.71;82.44;98934.46;105097;1294;1002894;-67
2022/12/15 07:06:08;;;;;;;67.20;23.30;;;;;;;-10.74;82.67;98934.50;105900;1288;61783;-65
2022/12/15 07:08:55;;;;;;;69.60;24.20;;;;;;;-10.80;82.44;98935.73;105037;1292;1002825;-64
2022/12/15 07:11:45;;;;;;;72.00;26.50;;;;;;;-10.84;82.68;98938.86;105960;1292;69021;-64
2022/12/15 07:14:32;;;;;;;93.60;30.50;;;;;;;-10.85;82.75;98940.93;105834;1298;73380;-65
2022/12/15 07:17:20;;;;;;;84.10;27.90;;;;;;;-10.82;82.35;98942.45;105124;1294;1002471;-66
2022/12/15 07:20:09;;;;;;;82.80;28.20;;;;;;;-10.83;82.65;98943.64;105963;1291;60036;-64
2022/12/15 07:22:57;;;;;;;86.40;28.10;;;;;;;-10.85;82.32;98948.81;105889;1292;71817;-65
2022/12/15 07:25:45;;;;;;;85.80;28.80;;;;;;;-10.89;82.73;98957.95;105979;1291;66403;-68
2022/12/15 07:28:37;;;;;;;87.20;26.50;;;;;;;-10.87;83.07;98963.06;105904;1291;71684;-67
2022/12/15 07:31:24;;;;;;;84.80;28.30;;;;;;;-10.80;83.31;98966.25;105762;1295;59112;-68
2022/12/15 07:34:12;;;;;;;87.70;27.20;;;;;;;-10.72;83.25;98969.60;105878;1297;60719;-64
2022/12/15 07:37:00;;;;;;;87.50;27.60;;;;;;;-10.63;83.17;98976.21;105776;1293;72979;-65
2022/12/15 07:39:48;;;;;;;74.20;26.20;;;;;;;-10.57;83.07;98981.48;105861;1292;67380;-67
2022/12/15 07:42:36;;;;;;;81.30;26.70;;;;;;;-10.52;83.60;98987.42;105559;1291;72626;-67
2022/12/15 07:45:24;;;;;;;73.90;27.30;;;;;;;-10.44;83.51;98987.70;105827;1298;58584;-66
2022/12/15 07:48:12;;;;;;;62.40;25.30;;;;;;;-10.36;83.68;98989.33;105500;1295;58831;-66
2022/12/15 07:51:07;;;;;;;66.80;25.50;;;;;;;-10.27;83.47;98992.12;105457;1298;72059;-65
2022/12/15 07:54:06;;;;;;;81.20;28.40;;;;;;;-10.16;83.74;98995.77;104786;1294;1002314;-64
2022/12/15 07:56:54;;;;;;;78.60;29.90;;;;;;;-10.05;83.83;98992.92;105498;1296;72825;-64
2022/12/15 07:59:42;;;;;;;75.50;26.50;;;;;;;-10.03;83.19;98982.42;105428;1297;57357;-63
2022/12/15 08:02:30;;;;;;;91.30;30.90;;;;;;;-9.93;82.97;98990.55;105417;1302;58015;-69
2022/12/15 08:05:18;;;;;;;71.20;27.80;;;;;;;-9.86;83.04;98993.20;105495;1299;72969;-70
2022/12/15 08:08:06;;;;;;;89.90;31.20;;;;;;;-9.79;83.03;98991.06;105405;1297;67031;-69
2022/12/15 08:11:12;;;;;;;96.80;31.20;;;;;;;-9.75;82.64;98992.40;105436;1303;72931;-69
2022/12/15 08:13:59;;;;;;;110.90;36.40;;;;;;;-9.65;82.59;98994.66;105571;1296;58931;-69
2022/12/15 08:16:50;;;;;;;105.20;33.90;;;;;;;-9.52;82.89;98995.36;105604;1294;60067;-70
2022/12/15 08:19:38;;;;;;;104.50;33.70;;;;;;;-9.32;82.70;98996.97;105750;1298;71614;-68
2022/12/15 08:22:25;;;;;;;106.30;37.60;;;;;;;-8.83;82.61;99003.61;105891;1291;66885;-70
2022/12/15 08:25:13;;;;;;;112.40;38.60;;;;;;;-7.38;84.06;99010.52;105871;1292;73438;-71
2022/12/15 08:28:01;;;;;;;112.80;40.10;;;;;;;-5.32;83.82;99000.90;105858;1291;57774;-73
2022/12/15 08:30:48;;;;;;;122.90;47.20;;;;;;;-3.18;79.30;99003.02;105729;1300;60404;-75
2022/12/15 08:33:37;;;;;;;109.50;43.60;;;;;;;-1.39;72.34;98995.55;105846;1290;74046;-75
2022/12/15 08:36:25;;;;;;;91.80;39.40;;;;;;;-0.09;63.76;98992.65;105000;1287;1002066;-73
2022/12/15 08:39:13;;;;;;;88.00;36.20;;;;;;;0.49;57.34;98990.54;105887;1290;72880;-76
2022/12/15 08:42:00;;;;;;;86.90;39.30;;;;;;;1.21;58.49;98990.48;105883;1299;57178;-75
2022/12/15 08:44:49;;;;;;;74.40;35.30;;;;;;;2.20;56.08;98991.92;105915;1290;60085;-75
2022/12/15 08:47:37;;;;;;;74.00;36.00;;;;;;;3.01;53.24;98991.34;105248;1291;1002447;-75
2022/12/15 08:50:25;;;;;;;73.20;36.20;;;;;;;3.69;51.05;98990.77;105960;1290;69052;-76
2022/12/15 08:53:12;;;;;;;70.30;36.40;;;;;;;4.39;50.25;98988.89;105963;1284;72387;-72
2022/12/15 08:56:20;;;;;;;76.80;38.30;;;;;;;4.83;45.56;98988.95;105962;1291;57171;-73
2022/12/15 08:59:08;;;;;;;78.30;39.90;;;;;;;4.85;43.08;98984.83;105943;1299;60389;-72
2022/12/15 09:01:58;;;;;;;81.40;42.50;;;;;;;4.93;42.25;98980.91;105886;1290;73015;-73
2022/12/15 09:04:46;;;;;;;82.60;42.40;;;;;;;5.17;41.03;98984.06;105987;1292;66336;-72
2022/12/15 09:07:34;;;;;;;86.80;44.30;;;;;;;5.27;40.10;98980.91;105960;1291;73523;-72
2022/12/15 09:10:22;;;;;;;90.90;45.60;;;;;;;5.45;40.05;98979.56;105977;1287;57463;-74
2022/12/15 09:13:10;;;;;;;81.10;43.70;;;;;;;5.74;39.77;98979.73;105901;1290;60383;-74
2022/12/15 09:16:04;;;;;;;79.70;40.50;;;;;;;5.99;37.88;98978.25;105896;1294;74197;-73
2022/12/15 09:19:02;;;;;;;86.70;44.90;;;;;;;5.69;36.27;98976.79;105913;1296;67548;-72
2022/12/15 09:21:49;;;;;;;84.90;44.80;;;;;;;5.76;36.63;98984.64;105878;1281;71246;-72
2022/12/15 09:24:37;;;;;;;85.80;45.30;;;;;;;6.04;36.05;98987.70;105991;1296;57321;-71
2022/12/15 09:27:24;;;;;;;85.40;46.20;;;;;;;6.10;34.86;98990.27;105922;1281;59374;-72
2022/12/15 09:30:13;;;;;;;87.30;45.90;;;;;;;6.43;35.03;98990.60;105648;1300;74290;-76
2022/12/15 09:33:00;;;;;;;87.30;48.00;;;;;;;6.78;34.31;98986.76;105779;1292;68058;-72
2022/12/15 09:35:50;;;;;;;92.20;48.30;;;;;;;7.09;33.96;98980.98;105862;1284;72369;-73
2022/12/15 09:38:40;;;;;;;87.60;47.20;;;;;;;7.51;33.15;98976.73;105883;1291;57192;-73
2022/12/15 09:41:34;;;;;;;75.90;43.80;;;;;;;7.87;32.57;98977.48;105892;1290;59088;-71
2022/12/15 09:44:24;;;;;;;85.60;48.50;;;;;;;7.98;31.63;98978.45;105971;1290;73840;-73
2022/12/15 09:47:29;;;;;;;78.80;44.50;;;;;;;7.81;31.49;98986.11;105882;1295;69205;-72
2022/12/15 09:50:24;;;;;;;83.20;46.30;;;;;;;7.58;31.43;98986.21;105820;1292;72507;-74
2022/12/15 09:53:16;;;;;;;89.10;49.80;;;;;;;7.69;31.80;98986.34;105889;1291;57201;-72
2022/12/15 09:56:39;;;;;;;82.20;45.90;;;;;;;8.13;31.70;98983.40;105908;1290;58618;-74
2022/12/15 09:59:45;;;;;;;74.10;42.60;;;;;;;8.36;31.04;98975.83;105771;1284;74310;-73
2022/12/15 10:03:21;;;;;;;68.20;37.30;;;;;;;8.58;30.26;98973.02;105753;1294;69047;-73
2022/12/15 10:06:26;;;;;;;55.70;32.90;;;;;;;8.95;30.21;98977.23;105825;1290;71839;-73
2022/12/15 10:09:27;;;;;;;64.50;37.00;;;;;;;9.25;29.69;98982.64;105718;1289;58022;-73
2022/12/15 10:12:25;;;;;;;55.80;33.30;;;;;;;9.23;29.51;98977.43;105845;1293;60357;-72
2022/12/15 10:15:29;;;;;;;64.00;37.30;;;;;;;9.29;29.73;98976.94;105798;1301;72772;-72
2022/12/15 10:18:25;;;;;;;58.10;34.20;;;;;;;9.63;29.27;98968.59;105787;1293;68678;-72
2022/12/15 10:21:13;;;;;;;57.70;34.80;;;;;;;9.50;29.05;98961.92;105746;1292;71632;-72
2022/12/15 10:24:30;;;;;;;59.30;34.10;;;;;;;9.57;29.54;98958.65;105775;1292;57614;-73
2022/12/15 10:28:17;;;;;;;59.60;35.20;;;;;;;9.72;28.51;98957.33;105815;1294;60053;-72
2022/12/15 10:31:17;;;;;;;57.40;34.90;;;;;;;9.64;28.81;98962.10;105788;1294;72883;-72
2022/12/15 10:34:22;;;;;;;60.40;34.20;;;;;;;9.78;28.71;98967.34;105900;1290;67842;-71
2022/12/15 10:37:19;;;;;;;62.60;35.70;;;;;;;9.86;28.57;98969.66;105745;1294;72591;-71
2022/12/15 10:40:13;;;;;;;64.90;40.20;;;;;;;9.77;28.18;98974.16;105792;1284;58820;-69
2022/12/15 10:43:13;;;;;;;61.90;36.80;;;;;;;9.50;28.57;98976.79;105804;1294;61481;-72
2022/12/15 10:46:20;;;;;;;67.00;38.20;;;;;;;9.42;28.78;98975.62;105825;1291;71553;-70
2022/12/15 10:49:08;;;;;;;59.50;33.60;;;;;;;9.37;28.88;98967.86;105920;1291;67733;-70
2022/12/15 10:51:59;;;;;;;59.10;33.00;;;;;;;9.39;29.27;98964.33;105896;1291;72411;-70
2022/12/15 10:54:51;;;;;;;57.00;34.70;;;;;;;9.51;28.92;98961.48;105795;1294;57812;-71
2022/12/15 10:57:57;;;;;;;56.30;33.40;;;;;;;9.44;28.86;98964.82;105918;1292;60361;-71
2022/12/15 11:00:45;;;;;;;55.90;32.10;;;;;;;8.75;29.11;98963.26;105825;1294;74295;-72
2022/12/15 11:03:37;;;;;;;53.10;30.20;;;;;;;8.23;29.75;98970.88;105923;1292;67856;-70
2022/12/15 11:06:32;;;;;;;55.60;31.00;;;;;;;7.94;30.49;98970.50;105913;1291;72205;-71
2022/12/15 11:09:35;;;;;;;56.20;32.00;;;;;;;7.81;30.70;98975.27;105879;1292;58029;-71
2022/12/15 11:15:50;;;;;;;54.20;30.00;;;;;;;8.10;31.22;98976.80;105842;1298;70794;-71
2022/12/15 11:18:52;;;;;;;52.40;29.60;;;;;;;7.99;31.23;98975.20;105869;1284;67104;-71
2022/12/15 11:21:50;;;;;;;56.40;32.20;;;;;;;7.93;31.53;98971.17;105719;1291;72494;-70
2022/12/15 11:24:49;;;;;;;53.10;28.80;;;;;;;7.81;32.17;98970.70;105751;1295;57738;-70
2022/12/15 11:27:42;;;;;;;51.00;28.60;;;;;;;7.75;31.75;98965.71;105768;1293;58686;-71
2022/12/15 11:30:41;;;;;;;47.60;26.50;;;;;;;7.57;32.53;98964.71;105871;1285;73264;-71
2022/12/15 11:33:28;;;;;;;42.00;23.40;;;;;;;7.58;32.52;98965.36;105820;1291;66836;-70
2022/12/15 11:36:35;;;;;;;43.30;23.70;;;;;;;7.11;33.01;98965.30;105917;1290;72705;-70
2022/12/15 11:39:54;;;;;;;40.10;23.20;;;;;;;6.32;34.28;98973.41;105794;1292;57254;-71
2022/12/15 11:43:17;;;;;;;41.30;22.70;;;;;;;5.90;35.45;98980.29;105940;1291;60181;-71
2022/12/15 11:46:41;;;;;;;38.50;19.90;;;;;;;5.49;35.77;98986.33;105057;1288;1002120;-71
2022/12/15 11:50:04;;;;;;;44.20;23.20;;;;;;;5.19;36.57;98993.28;105801;1295;68923;-71
2022/12/15 11:53:39;;;;;;;41.50;20.00;;;;;;;5.15;36.97;98998.69;105269;1306;73789;-71
2022/12/15 11:56:38;;;;;;;42.30;21.70;;;;;;;5.03;37.20;99001.09;104058;1311;57532;-70
2022/12/15 11:59:56;;;;;;;36.80;19.50;;;;;;;5.07;37.09;99001.17;104005;1315;58674;-70
2022/12/15 12:03:21;;;;;;;40.90;19.90;;;;;;;4.86;37.33;99004.02;104037;1308;72875;-70
2022/12/15 12:06:15;;;;;;;41.90;21.00;;;;;;;4.28;38.19;99001.24;103975;1318;68472;-70
2022/12/15 12:09:28;;;;;;;37.90;19.60;;;;;;;4.02;39.27;99001.40;103986;1310;71918;-70
2022/12/15 12:12:39;;;;;;;41.90;20.20;;;;;;;3.67;40.00;99006.52;103990;1310;57274;-70
2022/12/15 12:15:54;;;;;;;43.60;21.20;;;;;;;3.43;40.59;99013.20;104058;1304;61896;-69
2022/12/15 12:19:04;;;;;;;43.40;21.70;;;;;;;3.21;41.17;99016.16;103342;1310;1002273;-70
2022/12/15 12:22:02;;;;;;;40.10;19.40;;;;;;;2.98;41.82;99023.55;104063;1310;67808;-70
2022/12/15 12:24:56;;;;;;;38.30;18.70;;;;;;;2.63;42.55;99031.84;104023;1318;72516;-70
2022/12/15 12:28:13;;;;;;;42.10;19.10;;;;;;;1.95;43.54;99036.05;104078;1317;58046;-71
2022/12/15 12:31:02;;;;;;;41.50;19.40;;;;;;;0.97;45.66;99035.13;103723;1314;1002280;-71
2022/12/15 12:33:54;;;;;;;39.00;18.90;;;;;;;0.41;47.08;99044.04;105372;1291;73121;-70
2022/12/15 12:36:43;;;;;;;41.30;20.30;;;;;;;-0.13;48.60;99046.04;105812;1291;67733;-71
2022/12/15 12:39:36;;;;;;;42.00;16.90;;;;;;;-0.67;49.93;99046.40;105907;1292;73733;-71
2022/12/15 12:42:39;;;;;;;39.30;17.20;;;;;;;-1.27;51.93;99046.73;105041;1292;1002513;-71
2022/12/15 12:45:32;;;;;;;42.40;18.10;;;;;;;-1.79;53.43;99046.27;105926;1291;60093;-71
2022/12/15 12:48:57;;;;;;;38.50;16.90;;;;;;;-2.26;55.76;99045.95;105810;1294;74116;-71
2022/12/15 12:51:52;;;;;;;44.50;20.60;;;;;;;-2.79;57.67;99044.75;105780;1295;69293;-70
2022/12/15 12:54:43;;;;;;;44.20;18.20;;;;;;;-3.12;58.90;99040.66;105910;1291;73979;-71
2022/12/15 12:57:36;;;;;;;42.70;17.40;;;;;;;-3.46;60.50;99049.36;105911;1292;59142;-70
2022/12/15 13:00:29;;;;;;;47.50;17.80;;;;;;;-3.68;61.30;99051.58;105806;1285;60447;-71
2022/12/15 13:03:20;;;;;;;47.90;19.10;;;;;;;-3.89;62.09;99055.75;105754;1285;72807;-71
2022/12/15 13:06:33;;;;;;;42.40;16.40;;;;;;;-4.02;62.86;99057.60;105102;1278;1002800;-71
2022/12/15 13:09:24;;;;;;;43.10;16.60;;;;;;;-4.23;64.35;99062.95;105921;1292;73551;-70
2022/12/15 13:12:53;;;;;;;54.40;20.80;;;;;;;-4.33;64.39;99063.12;104918;1292;1002577;-69
2022/12/15 13:15:45;;;;;;;41.70;17.30;;;;;;;-4.45;65.42;99069.74;105762;1294;60171;-71
2022/12/15 13:19:55;;;;;;;40.60;17.10;;;;;;;-4.48;65.42;99073.14;105657;1293;72703;-71
2022/12/15 13:22:43;;;;;;;31.70;12.90;;;;;;;-4.46;65.76;99072.90;104315;1309;1002709;-74
2022/12/15 13:25:40;;;;;;;34.40;14.10;;;;;;;-4.48;65.99;99079.34;104260;1302;1002693;-72
2022/12/15 13:28:43;;;;;;;47.00;17.70;;;;;;;-4.50;66.24;99087.55;105040;1303;59313;-71
2022/12/15 13:31:41;;;;;;;37.60;15.60;;;;;;;-4.52;66.18;99088.33;104945;1295;58977;-74
2022/12/15 13:34:39;;;;;;;41.40;16.00;;;;;;;-4.55;66.22;99090.47;104983;1303;74164;-73
2022/12/15 13:37:49;;;;;;;37.00;13.20;;;;;;;-4.53;66.18;99095.11;104268;1306;1002830;-71
2022/12/15 13:40:37;;;;;;;31.40;12.50;;;;;;;-4.57;66.64;99095.21;105139;1300;73581;-72
2022/12/15 13:43:27;;;;;;;38.50;14.20;;;;;;;-4.61;66.77;99096.04;104409;1300;1002941;-72
2022/12/15 13:46:23;;;;;;;44.70;17.90;;;;;;;-4.70;67.59;99098.58;105176;1300;60540;-71
2022/12/15 13:49:20;;;;;;;47.90;19.20;;;;;;;-4.80;68.02;99100.42;104421;1300;1002330;-72
2022/12/15 13:52:52;;;;;;;40.10;15.70;;;;;;;-4.87;68.39;99095.81;104124;1300;1002492;-73
2022/12/15 13:56:09;;;;;;;41.70;15.40;;;;;;;-4.98;68.75;99099.23;105891;1292;73682;-73
2022/12/15 13:59:06;;;;;;;48.30;17.70;;;;;;;-5.11;69.71;99099.09;105133;1290;1002212;-74
2022/12/15 14:01:54;;;;;;;37.30;13.40;;;;;;;-5.25;69.99;99099.84;105801;1292;59043;-71
2022/12/15 14:04:41;;;;;;;51.30;18.70;;;;;;;-5.39;70.73;99116.67;105949;1290;72906;-71
2022/12/15 14:07:29;;;;;;;42.90;17.10;;;;;;;-5.54;71.16;99118.61;105236;1290;1002216;-71
2022/12/15 14:10:41;;;;;;;33.60;14.30;;;;;;;-5.67;72.04;99116.73;105090;1291;1002738;-73
2022/12/15 14:13:33;;;;;;;46.30;17.90;;;;;;;-5.85;72.51;99121.86;104992;1294;1002119;-72
2022/12/15 14:16:33;;;;;;;43.60;18.20;;;;;;;-6.01;73.69;99120.21;105150;1284;1003039;-71
2022/12/15 14:19:22;;;;;;;33.90;12.40;;;;;;;-6.12;74.01;99121.88;105888;1291;73905;-71
2022/12/15 14:22:23;;;;;;;40.60;15.60;;;;;;;-6.22;74.55;99126.96;105848;1294;68163;-71
2022/12/15 14:25:28;;;;;;;47.30;17.40;;;;;;;-6.31;75.22;99128.55;105850;1287;72737;-71
2022/12/15 14:28:32;;;;;;;52.00;19.50;;;;;;;-6.41;76.15;99129.30;105011;1283;1002879;-71
2022/12/15 14:31:23;;;;;;;43.50;17.50;;;;;;;-6.48;76.62;99129.65;105097;1294;1002518;-67
2022/12/15 14:34:23;;;;;;;40.90;17.40;;;;;;;-6.57;77.39;99134.49;104760;1290;1002936;-66
2022/12/15 14:37:18;;;;;;;39.20;15.10;;;;;;;-6.64;78.14;99140.00;105730;1294;67694;-68
2022/12/15 14:40:15;;;;;;;51.70;19.50;;;;;;;-6.70;78.55;99143.93;105711;1293;72373;-67
2022/12/15 14:43:10;;;;;;;45.50;18.10;;;;;;;-6.74;79.15;99149.02;105727;1291;57507;-66
2022/12/15 14:46:15;;;;;;;41.70;16.40;;;;;;;-6.78;79.21;99149.80;105015;1290;1002597;-66
2022/12/15 14:49:07;;;;;;;45.80;19.10;;;;;;;-6.84;79.42;99155.27;105862;1284;71476;-64
2022/12/15 14:52:03;;;;;;;54.30;20.40;;;;;;;-6.88;79.40;99153.46;105884;1294;67880;-66
2022/12/15 14:54:56;;;;;;;37.40;14.60;;;;;;;-6.90;78.76;99152.83;105874;1292;73519;-64
2022/12/15 14:57:45;;;;;;;51.60;19.00;;;;;;;-6.94;79.26;99152.40;105904;1290;57186;-64
2022/12/15 15:00:47;;;;;;;52.20;20.10;;;;;;;-7.01;79.66;99149.59;105881;1292;61152;-65
2022/12/15 15:03:39;;;;;;;37.20;15.00;;;;;;;-7.07;79.73;99149.19;105790;1292;72938;-63
2022/12/15 15:06:55;;;;;;;61.70;23.70;;;;;;;-7.11;79.88;99148.59;105162;1290;1002052;-66
2022/12/15 15:09:45;;;;;;;52.60;19.00;;;;;;;-7.11;79.52;99157.92;105443;1297;72860;-68
2022/12/15 15:12:59;;;;;;;60.20;21.70;;;;;;;-7.16;80.42;99153.70;105347;1300;58514;-65
2022/12/15 15:15:59;;;;;;;50.80;18.50;;;;;;;-7.23;80.39;99161.25;105451;1297;60232;-65
2022/12/15 15:18:54;;;;;;;63.40;22.40;;;;;;;-7.29;80.44;99166.89;105277;1301;74442;-67
2022/12/15 15:21:45;;;;;;;70.20;25.40;;;;;;;-7.35;80.71;99170.80;105309;1297;67558;-66
2022/12/15 15:24:38;;;;;;;72.10;24.70;;;;;;;-7.43;81.23;99175.23;105300;1297;72679;-66
2022/12/15 15:27:38;;;;;;;61.60;21.60;;;;;;;-7.53;81.93;99168.88;105312;1298;57651;-64
2022/12/15 15:30:26;;;;;;;66.90;25.00;;;;;;;-7.56;81.28;99178.40;105440;1297;60043;-66
2022/12/15 15:33:14;;;;;;;61.50;22.20;;;;;;;-7.61;81.76;99179.70;105437;1290;72853;-67
2022/12/15 15:36:09;;;;;;;74.60;25.00;;;;;;;-7.68;82.69;99179.83;105432;1291;66966;-68
2022/12/15 15:38:58;;;;;;;55.00;20.40;;;;;;;-7.76;82.98;99178.95;105437;1297;72907;-66